Time;durP1;ratioP1;P1;durP2;ratioP2;P2;SDS_P1;SDS_P2;PMS_P1;PMS_P2;Temp;Humidity;BMP_temperature;BMP_pressure;BME280_temperature;BME280_humidity;BME280_pressure;Samples;Min_cycle;Max_cycle;Signal;HPM_P1;HPM_P2
2022/08/28 00:02:10;;;;;;;16.67;8.43;;;;;;;;;;5053278;28;20045;-70
2022/08/28 00:05:15;;;;;;;12.65;7.80;;;;;;;;;;5052246;28;20037;-70
2022/08/28 00:08:20;;;;;;;14.85;8.38;;;;;;;;;;5052737;28;20033;-70
2022/08/28 00:11:25;;;;;;;14.30;8.85;;;;;;;;;;5052564;28;20037;-70
2022/08/28 00:14:29;;;;;;;13.23;8.70;;;;;;;;;;5053051;28;20041;-70
2022/08/28 00:17:34;;;;;;;17.30;9.55;;;;;;;;;;5051795;28;20028;-70
2022/08/28 00:20:38;;;;;;;14.15;9.75;;;;;;;;;;5052757;28;20403;-70
2022/08/28 00:23:42;;;;;;;19.98;9.55;;;;;;;;;;5052674;28;20037;-70
2022/08/28 00:30:10;;;;;;;21.52;10.20;;;;;;;;;;5052908;28;20045;-70
2022/08/28 00:33:17;;;;;;;16.98;10.00;;;;;;;;;;5052642;28;20044;-70
2022/08/28 00:36:22;;;;;;;18.23;9.98;;;;;;;;;;5051665;28;20048;-70
2022/08/28 00:39:27;;;;;;;19.02;10.55;;;;;;;;;;5052792;28;20503;-70
2022/08/28 00:42:33;;;;;;;19.58;10.90;;;;;;;;;;5052717;28;20400;-70
2022/08/28 00:45:39;;;;;;;30.90;12.00;;;;;;;;;;5052777;28;20503;-71
2022/08/28 00:48:44;;;;;;;28.00;12.25;;;;;;;;;;5052471;28;20417;-70
2022/08/28 00:52:06;;;;;;;24.30;12.48;;;;;;;;;;5052266;28;20532;-71
2022/08/28 00:55:19;;;;;;;23.90;13.75;;;;;;;;;;5052478;28;20059;-71
2022/08/28 00:58:23;;;;;;;29.60;15.05;;;;;;;;;;5052378;28;20044;-71
2022/08/28 01:01:28;;;;;;;24.58;14.35;;;;;;;;;;5052921;28;20064;-70
2022/08/28 01:04:33;;;;;;;23.42;14.43;;;;;;;;;;5052290;28;20044;-70
2022/08/28 01:07:39;;;;;;;22.20;13.55;;;;;;;;;;5052132;28;20051;-71
2022/08/28 01:10:46;;;;;;;25.95;14.25;;;;;;;;;;5052208;28;20048;-71
2022/08/28 01:13:53;;;;;;;26.65;13.52;;;;;;;;;;5052255;28;20040;-70
2022/08/28 01:16:57;;;;;;;22.73;14.38;;;;;;;;;;5052336;28;20500;-70
2022/08/28 01:20:04;;;;;;;22.92;13.63;;;;;;;;;;5052279;28;20495;-70
2022/08/28 01:23:23;;;;;;;24.60;14.60;;;;;;;;;;5051644;28;20547;-70
2022/08/28 01:26:28;;;;;;;28.95;14.60;;;;;;;;;;5051363;28;20401;-70
2022/08/28 01:29:33;;;;;;;21.55;13.80;;;;;;;;;;5051983;28;20503;-70
2022/08/28 01:32:42;;;;;;;27.42;13.18;;;;;;;;;;5051535;28;20052;-70
2022/08/28 01:35:47;;;;;;;26.98;13.98;;;;;;;;;;5052007;28;20036;-70
2022/08/28 01:38:55;;;;;;;30.13;12.93;;;;;;;;;;5051616;28;20048;-70
2022/08/28 01:42:01;;;;;;;22.30;12.90;;;;;;;;;;5051464;28;20056;-70
2022/08/28 01:45:07;;;;;;;18.25;12.70;;;;;;;;;;5052022;28;20086;-70
2022/08/28 01:48:13;;;;;;;21.67;13.02;;;;;;;;;;5051712;28;20412;-70
2022/08/28 01:51:17;;;;;;;24.35;14.00;;;;;;;;;;5051726;28;20044;-70
2022/08/28 01:54:21;;;;;;;21.42;13.00;;;;;;;;;;5051871;28;20455;-70
2022/08/28 01:57:26;;;;;;;22.40;12.25;;;;;;;;;;5051588;28;20044;-70
2022/08/28 02:00:30;;;;;;;19.23;12.60;;;;;;;;;;5051572;28;20048;-70
2022/08/28 02:03:35;;;;;;;19.02;13.05;;;;;;;;;;5051420;28;20385;-71
2022/08/28 02:06:40;;;;;;;20.90;11.88;;;;;;;;;;5051249;28;20044;-71
2022/08/28 02:09:44;;;;;;;19.67;11.23;;;;;;;;;;5051536;28;20060;-71
2022/08/28 02:12:48;;;;;;;17.92;11.23;;;;;;;;;;5051220;28;20043;-71
2022/08/28 02:15:53;;;;;;;21.17;11.32;;;;;;;;;;5051493;28;20401;-71
2022/08/28 02:18:57;;;;;;;22.40;11.95;;;;;;;;;;5051423;28;20056;-71
2022/08/28 02:22:06;;;;;;;21.65;12.10;;;;;;;;;;5050783;28;20064;-71
2022/08/28 02:25:12;;;;;;;19.05;11.50;;;;;;;;;;5051185;28;20048;-71
2022/08/28 02:28:16;;;;;;;20.02;11.23;;;;;;;;;;5050156;28;20294;-71
2022/08/28 02:31:21;;;;;;;16.27;10.60;;;;;;;;;;5051380;28;20052;-71
2022/08/28 02:34:26;;;;;;;20.05;10.38;;;;;;;;;;5051101;28;20512;-71
2022/08/28 02:37:30;;;;;;;22.40;12.07;;;;;;;;;;5050971;28;20044;-71
2022/08/28 02:40:35;;;;;;;16.27;11.10;;;;;;;;;;5050523;28;20060;-70
2022/08/28 02:43:40;;;;;;;18.67;11.63;;;;;;;;;;5051165;28;20052;-71
2022/08/28 02:46:44;;;;;;;18.88;11.45;;;;;;;;;;5051028;28;20064;-71
2022/08/28 02:49:49;;;;;;;17.85;11.55;;;;;;;;;;5050704;28;20040;-70
2022/08/28 02:52:53;;;;;;;18.35;12.10;;;;;;;;;;5050881;28;20048;-70
2022/08/28 02:55:59;;;;;;;24.27;11.68;;;;;;;;;;5038388;28;20040;-70
2022/08/28 02:59:04;;;;;;;18.33;11.13;;;;;;;;;;5050680;28;20044;-71
2022/08/28 03:02:08;;;;;;;17.67;10.35;;;;;;;;;;5038282;28;20052;-71
2022/08/28 03:05:14;;;;;;;17.67;9.68;;;;;;;;;;5050830;28;20515;-71
2022/08/28 03:08:18;;;;;;;21.00;11.05;;;;;;;;;;5050597;28;20036;-71
2022/08/28 03:11:23;;;;;;;18.80;10.30;;;;;;;;;;5027433;28;20040;-71
2022/08/28 03:14:27;;;;;;;14.45;9.27;;;;;;;;;;5050539;28;20048;-71
2022/08/28 03:17:32;;;;;;;16.75;9.02;;;;;;;;;;5050420;28;20037;-71
2022/08/28 03:20:36;;;;;;;19.17;10.30;;;;;;;;;;5050695;28;20045;-71
2022/08/28 03:23:41;;;;;;;14.52;9.68;;;;;;;;;;5050433;28;20048;-71
2022/08/28 03:26:45;;;;;;;14.93;9.38;;;;;;;;;;5050712;28;20041;-71
2022/08/28 03:29:50;;;;;;;20.35;9.90;;;;;;;;;;5038329;28;20045;-71
2022/08/28 03:32:55;;;;;;;12.60;9.55;;;;;;;;;;5050034;28;20053;-71
2022/08/28 03:36:00;;;;;;;16.25;9.55;;;;;;;;;;5049637;28;20029;-71
2022/08/28 03:39:05;;;;;;;16.95;10.10;;;;;;;;;;5050365;28;20041;-70
2022/08/28 03:42:10;;;;;;;16.05;10.00;;;;;;;;;;5050210;28;20508;-71
2022/08/28 03:45:16;;;;;;;18.10;10.07;;;;;;;;;;5050010;28;20060;-71
2022/08/28 03:48:22;;;;;;;15.10;9.73;;;;;;;;;;5051980;28;20047;-71
2022/08/28 03:51:29;;;;;;;18.55;10.82;;;;;;;;;;5054135;28;20033;-71
2022/08/28 03:54:33;;;;;;;18.80;10.48;;;;;;;;;;5053998;28;20048;-71
2022/08/28 03:57:38;;;;;;;19.80;13.10;;;;;;;;;;5054258;28;20052;-71
2022/08/28 04:00:43;;;;;;;23.40;14.50;;;;;;;;;;5029877;28;20516;-71
2022/08/28 04:03:47;;;;;;;20.55;14.65;;;;;;;;;;5053825;28;20052;-71
2022/08/28 04:06:52;;;;;;;26.08;15.93;;;;;;;;;;5052981;28;20052;-70
2022/08/28 04:09:56;;;;;;;27.05;16.17;;;;;;;;;;5053695;28;20048;-71
2022/08/28 04:13:01;;;;;;;23.55;16.40;;;;;;;;;;5053687;28;20389;-71
2022/08/28 04:16:11;;;;;;;28.48;16.17;;;;;;;;;;5053451;28;20048;-70
2022/08/28 04:19:15;;;;;;;23.48;15.88;;;;;;;;;;5053284;28;20044;-71
2022/08/28 04:22:20;;;;;;;21.15;15.98;;;;;;;;;;5052236;28;20052;-71
2022/08/28 04:25:24;;;;;;;21.73;14.85;;;;;;;;;;5053201;28;20511;-71
2022/08/28 04:28:31;;;;;;;24.65;16.25;;;;;;;;;;5053101;28;20051;-71
2022/08/28 04:31:36;;;;;;;23.88;13.85;;;;;;;;;;5041124;28;20044;-71
2022/08/28 04:34:40;;;;;;;24.13;13.25;;;;;;;;;;5053445;28;20396;-71
2022/08/28 04:37:45;;;;;;;17.02;12.75;;;;;;;;;;5052477;28;20058;-71
2022/08/28 04:40:49;;;;;;;21.30;11.27;;;;;;;;;;5040424;28;20052;-71
2022/08/28 04:43:55;;;;;;;19.73;11.57;;;;;;;;;;5053051;28;20047;-71
2022/08/28 04:47:00;;;;;;;23.63;11.75;;;;;;;;;;5052933;28;20503;-71
2022/08/28 04:50:05;;;;;;;21.52;11.10;;;;;;;;;;5052672;28;20044;-71
2022/08/28 04:53:09;;;;;;;14.48;10.38;;;;;;;;;;5052642;28;20043;-71
2022/08/28 04:56:14;;;;;;;16.58;10.25;;;;;;;;;;5052537;28;20060;-71
2022/08/28 04:59:18;;;;;;;16.40;10.40;;;;;;;;;;5052692;28;20036;-70
2022/08/28 05:02:22;;;;;;;16.02;9.57;;;;;;;;;;5052322;28;20056;-71
2022/08/28 05:05:27;;;;;;;16.08;9.23;;;;;;;;;;5052279;28;20469;-71
2022/08/28 05:08:32;;;;;;;21.90;9.88;;;;;;;;;;5051624;28;20123;-71
2022/08/28 05:11:36;;;;;;;16.10;9.52;;;;;;;;;;5052283;28;20040;-70
2022/08/28 05:14:41;;;;;;;20.25;10.13;;;;;;;;;;5052593;28;20049;-71
2022/08/28 05:17:48;;;;;;;18.83;10.30;;;;;;;;;;5029561;28;20100;-71
2022/08/28 05:20:52;;;;;;;16.02;9.45;;;;;;;;;;5052134;28;20052;-71
2022/08/28 05:23:57;;;;;;;17.15;9.18;;;;;;;;;;5051929;28;20037;-70
2022/08/28 05:27:02;;;;;;;14.32;8.25;;;;;;;;;;5052097;28;20037;-70
2022/08/28 05:30:07;;;;;;;15.20;8.90;;;;;;;;;;5051882;28;20501;-70
2022/08/28 05:33:12;;;;;;;12.00;8.18;;;;;;;;;;5051680;28;20033;-70
2022/08/28 05:36:17;;;;;;;15.52;7.60;;;;;;;;;;5051801;28;20481;-70
2022/08/28 05:39:22;;;;;;;14.23;8.35;;;;;;;;;;5050731;28;20044;-70
2022/08/28 05:42:27;;;;;;;16.52;8.68;;;;;;;;;;5050612;28;20041;-69
2022/08/28 05:45:31;;;;;;;15.80;9.93;;;;;;;;;;5051664;28;20520;-70
2022/08/28 05:48:37;;;;;;;17.85;10.00;;;;;;;;;;5051785;28;20045;-70
2022/08/28 05:51:42;;;;;;;24.83;13.32;;;;;;;;;;5051697;28;20052;-70
2022/08/28 05:54:48;;;;;;;29.23;19.20;;;;;;;;;;5052013;28;20500;-70
2022/08/28 05:57:53;;;;;;;29.67;17.95;;;;;;;;;;5051576;28;20052;-69
2022/08/28 06:01:06;;;;;;;19.75;12.43;;;;;;;;;;5050593;28;20599;-69
2022/08/28 06:04:12;;;;;;;16.50;10.38;;;;;;;;;;5051520;28;20056;-69
2022/08/28 06:07:18;;;;;;;12.35;9.20;;;;;;;;;;5051290;28;20063;-69
2022/08/28 06:10:22;;;;;;;14.32;8.90;;;;;;;;;;5051062;28;20374;-69
2022/08/28 06:13:26;;;;;;;13.30;8.70;;;;;;;;;;5050958;28;20037;-69
2022/08/28 06:16:33;;;;;;;11.38;7.68;;;;;;;;;;5051456;28;20040;-70
2022/08/28 06:19:38;;;;;;;12.85;7.47;;;;;;;;;;5027643;28;20468;-69
2022/08/28 06:22:43;;;;;;;18.38;8.30;;;;;;;;;;5050891;28;20045;-69
2022/08/28 06:25:49;;;;;;;16.77;7.75;;;;;;;;;;5050178;28;20041;-69
2022/08/28 06:28:53;;;;;;;12.45;7.20;;;;;;;;;;5050359;28;20037;-69
2022/08/28 06:31:59;;;;;;;17.48;7.32;;;;;;;;;;5051280;28;20044;-69
2022/08/28 06:35:03;;;;;;;26.63;8.18;;;;;;;;;;5050816;28;20033;-69
2022/08/28 06:38:08;;;;;;;12.25;6.28;;;;;;;;;;5051046;28;20033;-70
2022/08/28 06:41:13;;;;;;;17.58;7.75;;;;;;;;;;5049941;28;20385;-70
2022/08/28 06:44:19;;;;;;;10.55;6.57;;;;;;;;;;5050762;28;20029;-70
2022/08/28 06:47:23;;;;;;;17.55;6.57;;;;;;;;;;5049843;28;20424;-70
2022/08/28 06:50:28;;;;;;;10.57;6.80;;;;;;;;;;5050626;28;20033;-69
2022/08/28 06:53:33;;;;;;;10.98;6.30;;;;;;;;;;5050667;28;20033;-70
2022/08/28 06:56:38;;;;;;;8.27;5.80;;;;;;;;;;5050543;28;20029;-69
2022/08/28 06:59:42;;;;;;;12.05;6.40;;;;;;;;;;5049906;28;20045;-70
2022/08/28 07:02:47;;;;;;;9.18;6.45;;;;;;;;;;5050373;28;20485;-69
2022/08/28 07:05:55;;;;;;;11.63;5.90;;;;;;;;;;5050791;28;20044;-70
2022/08/28 07:09:00;;;;;;;9.57;5.30;;;;;;;;;;5050201;28;20033;-70
2022/08/28 07:12:04;;;;;;;13.77;5.78;;;;;;;;;;5049528;28;20041;-70
2022/08/28 07:15:09;;;;;;;8.40;4.22;;;;;;;;;;5050497;28;20060;-70
2022/08/28 07:18:13;;;;;;;8.13;3.72;;;;;;;;;;5050438;28;20037;-70
2022/08/28 07:21:19;;;;;;;9.75;4.15;;;;;;;;;;5050554;28;20045;-71
2022/08/28 07:24:24;;;;;;;6.50;4.80;;;;;;;;;;5054122;28;20044;-70
2022/08/28 07:27:28;;;;;;;6.95;4.18;;;;;;;;;;5042153;28;20029;-71
2022/08/28 07:30:32;;;;;;;8.77;4.50;;;;;;;;;;5053961;28;20045;-71
2022/08/28 07:33:38;;;;;;;7.25;3.72;;;;;;;;;;5053961;28;20037;-70
2022/08/28 07:36:43;;;;;;;11.60;3.97;;;;;;;;;;5054137;28;20041;-70
2022/08/28 07:39:48;;;;;;;8.80;4.32;;;;;;;;;;5053819;28;20041;-70
2022/08/28 07:46:14;;;;;;;5.50;3.42;;;;;;;;;;5053954;28;20032;-70
2022/08/28 07:49:19;;;;;;;7.65;3.80;;;;;;;;;;5053802;28;20476;-71
2022/08/28 07:52:24;;;;;;;7.57;4.43;;;;;;;;;;5052963;28;20041;-71
2022/08/28 07:55:30;;;;;;;4.50;3.72;;;;;;;;;;5053615;28;20508;-71
2022/08/28 07:58:35;;;;;;;7.38;3.55;;;;;;;;;;5053943;28;20045;-71
2022/08/28 08:01:41;;;;;;;9.43;3.90;;;;;;;;;;5053381;28;20052;-70
2022/08/28 08:04:45;;;;;;;19.98;5.38;;;;;;;;;;5052757;28;20032;-71
2022/08/28 08:07:49;;;;;;;13.75;4.72;;;;;;;;;;5053627;28;20041;-71
2022/08/28 08:11:05;;;;;;;27.98;6.80;;;;;;;;;;5053517;28;20037;-71
2022/08/28 08:14:10;;;;;;;4.70;3.75;;;;;;;;;;5053357;28;20045;-71
2022/08/28 08:17:14;;;;;;;8.48;3.42;;;;;;;;;;5052286;28;20044;-71
2022/08/28 08:20:18;;;;;;;5.07;3.50;;;;;;;;;;5053318;28;20041;-70
2022/08/28 08:23:24;;;;;;;6.90;3.60;;;;;;;;;;5052984;28;20053;-71
2022/08/28 08:26:28;;;;;;;5.13;3.38;;;;;;;;;;5053333;28;20037;-71
2022/08/28 08:29:37;;;;;;;9.95;3.85;;;;;;;;;;5053239;28;20041;-71
2022/08/28 08:32:41;;;;;;;9.98;3.80;;;;;;;;;;5052149;28;20041;-71
2022/08/28 08:35:46;;;;;;;7.53;3.55;;;;;;;;;;5052921;28;20041;-70
2022/08/28 08:38:51;;;;;;;10.05;4.22;;;;;;;;;;5052774;28;20032;-70
2022/08/28 08:41:56;;;;;;;4.10;3.40;;;;;;;;;;5052742;28;20045;-71
2022/08/28 08:45:03;;;;;;;5.97;3.72;;;;;;;;;;5052843;28;20041;-71
2022/08/28 08:48:12;;;;;;;4.93;4.00;;;;;;;;;;5052749;28;20095;-71
2022/08/28 08:51:22;;;;;;;7.60;3.88;;;;;;;;;;5051729;28;20036;-71
2022/08/28 08:54:27;;;;;;;6.63;3.58;;;;;;;;;;5051713;28;20037;-71
2022/08/28 08:57:32;;;;;;;5.88;3.72;;;;;;;;;;5052613;28;20037;-71
2022/08/28 09:00:46;;;;;;;7.63;3.45;;;;;;;;;;5052622;28;20040;-71
2022/08/28 09:03:53;;;;;;;9.13;4.07;;;;;;;;;;5052408;28;20048;-71
2022/08/28 09:07:16;;;;;;;8.90;4.38;;;;;;;;;;5052704;28;20367;-71
2022/08/28 09:10:21;;;;;;;6.32;3.85;;;;;;;;;;5039796;28;20220;-71
2022/08/28 09:13:48;;;;;;;8.82;4.32;;;;;;;;;;5052107;28;20037;-71
2022/08/28 09:16:53;;;;;;;8.25;4.30;;;;;;;;;;5052347;28;20037;-71
2022/08/28 09:19:57;;;;;;;7.70;3.80;;;;;;;;;;5051830;28;20049;-71
2022/08/28 09:23:02;;;;;;;7.70;4.32;;;;;;;;;;5050335;28;20057;-71
2022/08/28 09:26:10;;;;;;;11.35;5.22;;;;;;;;;;5051239;28;20044;-71
2022/08/28 09:29:17;;;;;;;7.80;4.50;;;;;;;;;;5050973;28;20037;-71
2022/08/28 09:32:43;;;;;;;11.43;5.35;;;;;;;;;;5051719;28;20294;-71
2022/08/28 09:35:47;;;;;;;7.45;3.85;;;;;;;;;;5051789;28;20033;-71
2022/08/28 09:39:08;;;;;;;7.18;4.18;;;;;;;;;;5050247;28;20033;-70
2022/08/28 09:45:45;;;;;;;8.15;4.20;;;;;;;;;;5051007;28;20041;-71
2022/08/28 09:48:53;;;;;;;8.35;4.10;;;;;;;;;;5051344;28;20032;-70
2022/08/28 09:52:01;;;;;;;4.85;4.15;;;;;;;;;;5051354;28;20045;-71
2022/08/28 09:55:05;;;;;;;10.07;3.97;;;;;;;;;;5051592;28;20025;-71
2022/08/28 09:58:10;;;;;;;7.25;4.22;;;;;;;;;;5051722;28;20028;-70
2022/08/28 10:01:29;;;;;;;5.85;4.03;;;;;;;;;;5050914;28;20033;-71
2022/08/28 10:04:33;;;;;;;5.57;4.10;;;;;;;;;;5051389;28;20041;-70
2022/08/28 10:07:47;;;;;;;9.88;3.95;;;;;;;;;;5051502;28;20033;-70
2022/08/28 10:10:55;;;;;;;8.38;3.92;;;;;;;;;;5050452;28;20469;-71
2022/08/28 10:14:17;;;;;;;5.72;4.03;;;;;;;;;;5051344;28;20041;-70
2022/08/28 10:17:34;;;;;;;6.72;4.20;;;;;;;;;;5050965;28;20389;-71
2022/08/28 10:20:42;;;;;;;13.45;4.30;;;;;;;;;;5050025;28;20033;-71
2022/08/28 10:23:47;;;;;;;9.05;4.28;;;;;;;;;;5038738;28;20041;-71
2022/08/28 10:26:51;;;;;;;4.13;3.80;;;;;;;;;;5051014;28;20036;-70
2022/08/28 10:30:09;;;;;;;4.15;3.67;;;;;;;;;;5050820;28;20037;-70
2022/08/28 10:33:13;;;;;;;6.15;3.70;;;;;;;;;;5051134;28;20084;-70
2022/08/28 10:36:19;;;;;;;12.35;4.30;;;;;;;;;;5051169;28;20037;-70
2022/08/28 10:39:32;;;;;;;7.47;4.53;;;;;;;;;;5050469;28;20053;-70
2022/08/28 10:42:43;;;;;;;20.92;4.80;;;;;;;;;;5050472;28;20057;-70
2022/08/28 10:45:50;;;;;;;8.65;4.00;;;;;;;;;;5050677;28;20044;-70
2022/08/28 10:49:01;;;;;;;8.75;4.45;;;;;;;;;;5051033;28;20029;-71
2022/08/28 10:52:11;;;;;;;7.88;3.90;;;;;;;;;;5050379;28;20037;-71
2022/08/28 10:55:24;;;;;;;14.45;3.85;;;;;;;;;;5049846;28;20033;-70
2022/08/28 10:58:30;;;;;;;9.32;3.60;;;;;;;;;;5054175;28;20044;-70
2022/08/28 11:01:38;;;;;;;6.57;3.60;;;;;;;;;;5030865;28;20180;-70
2022/08/28 11:04:42;;;;;;;10.05;4.30;;;;;;;;;;5054886;28;20489;-71
2022/08/28 11:07:48;;;;;;;6.53;4.15;;;;;;;;;;5053614;28;20373;-70
2022/08/28 11:10:54;;;;;;;12.90;4.85;;;;;;;;;;5054461;28;20496;-71
2022/08/28 11:14:00;;;;;;;9.18;4.40;;;;;;;;;;5053459;28;20347;-71
2022/08/28 11:17:06;;;;;;;6.85;4.30;;;;;;;;;;5054724;28;20033;-70
2022/08/28 11:20:23;;;;;;;11.07;4.28;;;;;;;;;;5054536;28;20040;-70
2022/08/28 11:23:35;;;;;;;12.73;5.40;;;;;;;;;;5054111;28;20045;-70
2022/08/28 11:26:51;;;;;;;13.35;5.90;;;;;;;;;;5030583;28;20033;-70
2022/08/28 11:30:00;;;;;;;7.93;4.30;;;;;;;;;;5054284;28;20040;-70
2022/08/28 11:33:06;;;;;;;5.22;4.68;;;;;;;;;;5054389;28;20497;-70
2022/08/28 11:36:28;;;;;;;6.10;4.00;;;;;;;;;;5054299;28;20037;-71
2022/08/28 11:39:33;;;;;;;7.13;4.28;;;;;;;;;;5054145;28;20037;-70
2022/08/28 11:42:38;;;;;;;6.50;3.80;;;;;;;;;;5052918;28;20041;-70
2022/08/28 11:45:44;;;;;;;5.38;3.97;;;;;;;;;;5054031;28;20037;-71
2022/08/28 11:48:50;;;;;;;7.18;4.32;;;;;;;;;;5052893;28;20041;-71
2022/08/28 11:52:13;;;;;;;8.90;4.50;;;;;;;;;;5053819;28;20037;-70
2022/08/28 11:55:28;;;;;;;7.10;5.03;;;;;;;;;;5052723;28;20033;-70
2022/08/28 11:58:53;;;;;;;7.22;4.05;;;;;;;;;;5051514;28;20536;-70
2022/08/28 12:02:18;;;;;;;7.45;4.10;;;;;;;;;;5052297;28;20045;-70
2022/08/28 12:05:32;;;;;;;8.70;4.38;;;;;;;;;;5052818;28;20044;-70
2022/08/28 12:08:50;;;;;;;12.20;4.53;;;;;;;;;;5052669;28;20037;-70
2022/08/28 12:11:58;;;;;;;6.43;3.75;;;;;;;;;;5053175;28;20378;-70
2022/08/28 12:15:06;;;;;;;9.88;4.55;;;;;;;;;;5053932;28;20366;-70
2022/08/28 12:18:10;;;;;;;10.73;6.70;;;;;;;;;;5053813;28;20041;-70
2022/08/28 12:21:22;;;;;;;7.70;5.88;;;;;;;;;;5053155;28;20029;-70
2022/08/28 12:24:27;;;;;;;14.32;9.88;;;;;;;;;;5053209;28;20053;-70
2022/08/28 12:27:35;;;;;;;11.85;8.93;;;;;;;;;;5053108;28;20033;-70
2022/08/28 12:30:44;;;;;;;6.60;4.15;;;;;;;;;;5040793;28;20048;-70
2022/08/28 12:33:49;;;;;;;6.68;4.65;;;;;;;;;;5053214;28;20041;-71
2022/08/28 12:37:00;;;;;;;6.97;4.47;;;;;;;;;;5053000;28;20045;-70
2022/08/28 12:40:11;;;;;;;5.80;3.58;;;;;;;;;;5052788;28;20120;-70
2022/08/28 12:43:39;;;;;;;6.10;3.70;;;;;;;;;;5051927;28;20049;-70
2022/08/28 12:46:44;;;;;;;6.25;4.22;;;;;;;;;;5051918;28;20041;-70
2022/08/28 12:49:48;;;;;;;3.45;2.83;;;;;;;;;;5052812;28;20366;-70
2022/08/28 12:52:54;;;;;;;6.95;3.60;;;;;;;;;;5052475;28;20041;-70
2022/08/28 12:55:58;;;;;;;6.20;3.58;;;;;;;;;;5052886;28;20370;-70
2022/08/28 12:59:41;;;;;;;8.70;3.65;;;;;;;;;;5051784;28;20041;-70
2022/08/28 13:02:46;;;;;;;5.15;3.42;;;;;;;;;;5050116;28;20049;-70
2022/08/28 13:05:58;;;;;;;5.38;3.08;;;;;;;;;;5050213;28;20028;-71
2022/08/28 13:09:02;;;;;;;5.90;3.38;;;;;;;;;;5052624;28;20369;-70
2022/08/28 13:12:07;;;;;;;7.97;3.60;;;;;;;;;;5052150;28;20033;-70
2022/08/28 13:15:11;;;;;;;5.90;4.15;;;;;;;;;;5040254;28;20386;-70
2022/08/28 13:18:36;;;;;;;7.47;3.97;;;;;;;;;;5052302;28;20033;-70
2022/08/28 13:21:46;;;;;;;7.72;3.20;;;;;;;;;;5050818;28;20037;-70
2022/08/28 13:24:58;;;;;;;8.03;3.70;;;;;;;;;;5051421;28;20041;-70
2022/08/28 13:28:04;;;;;;;7.93;3.45;;;;;;;;;;5028538;28;20418;-70
2022/08/28 13:31:27;;;;;;;8.32;3.45;;;;;;;;;;5051834;28;20041;-70
2022/08/28 13:34:33;;;;;;;4.32;2.95;;;;;;;;;;5051765;28;20045;-70
2022/08/28 13:37:44;;;;;;;9.68;3.00;;;;;;;;;;5050732;28;20033;-70
2022/08/28 13:40:52;;;;;;;9.05;2.97;;;;;;;;;;5051465;28;20036;-70
2022/08/28 13:43:56;;;;;;;13.02;3.63;;;;;;;;;;5051671;28;20045;-70
2022/08/28 13:47:02;;;;;;;9.88;2.80;;;;;;;;;;5051422;28;20037;-70
2022/08/28 13:50:07;;;;;;;12.20;5.28;;;;;;;;;;5051604;28;20037;-70
2022/08/28 13:53:12;;;;;;;19.50;4.05;;;;;;;;;;5050527;28;20036;-70
2022/08/28 13:56:17;;;;;;;11.30;3.88;;;;;;;;;;5050668;28;20040;-70
2022/08/28 13:59:22;;;;;;;10.35;3.38;;;;;;;;;;5050539;28;20037;-70
2022/08/28 14:05:49;;;;;;;6.28;3.60;;;;;;;;;;5051096;28;20033;-70
2022/08/28 14:08:53;;;;;;;7.28;3.25;;;;;;;;;;5051060;28;20025;-70
2022/08/28 14:11:58;;;;;;;8.05;3.28;;;;;;;;;;5050997;28;20033;-70
2022/08/28 14:15:04;;;;;;;5.55;3.40;;;;;;;;;;5051193;28;20037;-70
2022/08/28 14:18:08;;;;;;;6.78;3.70;;;;;;;;;;5051109;28;20045;-70
2022/08/28 14:21:13;;;;;;;5.10;2.47;;;;;;;;;;5050989;28;20044;-70
2022/08/28 14:24:17;;;;;;;9.52;3.17;;;;;;;;;;5050927;28;20037;-70
2022/08/28 14:27:22;;;;;;;6.65;2.58;;;;;;;;;;5050884;28;20037;-69
2022/08/28 14:30:26;;;;;;;5.97;2.33;;;;;;;;;;5050039;28;20033;-70
2022/08/28 14:33:31;;;;;;;5.25;2.45;;;;;;;;;;5050047;28;20037;-70
2022/08/28 14:36:35;;;;;;;6.93;2.38;;;;;;;;;;5050701;28;20374;-69
2022/08/28 14:39:40;;;;;;;4.28;2.20;;;;;;;;;;5050581;28;20049;-70
2022/08/28 14:42:46;;;;;;;3.97;1.90;;;;;;;;;;5050688;28;20053;-70
2022/08/28 14:45:51;;;;;;;6.50;2.45;;;;;;;;;;5038834;28;20370;-70
2022/08/28 14:49:00;;;;;;;15.80;2.33;;;;;;;;;;5051281;28;20040;-70
2022/08/28 14:52:05;;;;;;;10.65;2.35;;;;;;;;;;5050801;28;20040;-70
2022/08/28 14:55:09;;;;;;;5.15;2.10;;;;;;;;;;5049948;28;20041;-70
2022/08/28 14:58:15;;;;;;;8.23;2.33;;;;;;;;;;5050559;28;20037;-71
2022/08/28 15:01:33;;;;;;;5.20;2.63;;;;;;;;;;5050614;28;20500;-71
2022/08/28 15:04:38;;;;;;;4.95;2.53;;;;;;;;;;5050280;28;20049;-71
2022/08/28 15:07:42;;;;;;;4.93;2.35;;;;;;;;;;5051865;28;20033;-71
2022/08/28 15:10:47;;;;;;;5.57;2.60;;;;;;;;;;5050407;28;20381;-70
2022/08/28 15:13:52;;;;;;;5.40;2.40;;;;;;;;;;5038329;28;20473;-70
2022/08/28 15:16:56;;;;;;;5.35;2.92;;;;;;;;;;5050859;28;20049;-70
2022/08/28 15:20:01;;;;;;;5.32;2.97;;;;;;;;;;5049878;28;20037;-70
2022/08/28 15:23:06;;;;;;;5.50;2.92;;;;;;;;;;5049627;28;20033;-71
2022/08/28 15:26:10;;;;;;;9.73;2.95;;;;;;;;;;5050662;28;20472;-70
2022/08/28 15:29:15;;;;;;;7.05;3.22;;;;;;;;;;5049880;28;20422;-70
2022/08/28 15:32:20;;;;;;;4.88;3.00;;;;;;;;;;5050206;28;20045;-71
2022/08/28 15:35:24;;;;;;;3.72;2.72;;;;;;;;;;5049413;28;20029;-70
2022/08/28 15:41:22;;;;;;;3.42;2.75;;;;;;;;;;5037935;28;20045;-70
2022/08/28 15:41:53;;;;;;;5.78;2.33;;;;;;;;;;5050595;28;20057;-70
2022/08/28 15:44:57;;;;;;;5.20;2.47;;;;;;;;;;5054224;28;20049;-70
2022/08/28 15:48:02;;;;;;;7.78;2.50;;;;;;;;;;5054411;28;20057;-70
2022/08/28 15:51:07;;;;;;;6.22;2.80;;;;;;;;;;5052735;28;20040;-70
2022/08/28 15:54:11;;;;;;;4.25;2.45;;;;;;;;;;5053247;28;20041;-70
2022/08/28 15:57:16;;;;;;;6.05;2.50;;;;;;;;;;5053712;28;20041;-70
2022/08/28 16:00:21;;;;;;;8.18;2.65;;;;;;;;;;5053462;28;20040;-70
2022/08/28 16:03:25;;;;;;;8.23;3.10;;;;;;;;;;5053704;28;20082;-70
2022/08/28 16:06:30;;;;;;;5.03;2.60;;;;;;;;;;5053383;28;20033;-70
2022/08/28 16:09:34;;;;;;;3.80;2.42;;;;;;;;;;5053609;28;20481;-70
2022/08/28 16:12:39;;;;;;;4.35;2.50;;;;;;;;;;5053271;28;20473;-69
2022/08/28 16:15:47;;;;;;;7.15;2.65;;;;;;;;;;5053563;28;20040;-69
2022/08/28 16:18:51;;;;;;;5.95;2.60;;;;;;;;;;5053167;28;20029;-70
2022/08/28 16:21:56;;;;;;;5.88;2.38;;;;;;;;;;5053121;28;20044;-70
2022/08/28 16:25:00;;;;;;;4.25;2.33;;;;;;;;;;5053038;28;20041;-69
2022/08/28 16:28:05;;;;;;;4.32;1.60;;;;;;;;;;5053164;28;20037;-70
2022/08/28 16:31:10;;;;;;;3.53;2.13;;;;;;;;;;5052532;28;20029;-70
2022/08/28 16:34:14;;;;;;;3.30;2.40;;;;;;;;;;5052150;28;20033;-70
2022/08/28 16:37:19;;;;;;;5.50;2.00;;;;;;;;;;5053003;28;20041;-70
2022/08/28 16:40:23;;;;;;;2.65;1.80;;;;;;;;;;5052300;28;20037;-70
2022/08/28 16:43:28;;;;;;;6.20;2.17;;;;;;;;;;5053031;28;20045;-69
2022/08/28 16:46:32;;;;;;;3.17;2.13;;;;;;;;;;5051839;28;20370;-70
2022/08/28 16:49:37;;;;;;;4.18;2.33;;;;;;;;;;5051765;28;20370;-70
2022/08/28 16:52:41;;;;;;;6.45;2.40;;;;;;;;;;5052068;28;20044;-70
2022/08/28 16:55:46;;;;;;;7.10;2.33;;;;;;;;;;5052348;28;20033;-70
2022/08/28 16:58:51;;;;;;;3.55;2.00;;;;;;;;;;5052285;28;20045;-70
2022/08/28 17:01:55;;;;;;;6.18;2.40;;;;;;;;;;5051511;28;20033;-70
2022/08/28 17:05:00;;;;;;;2.92;2.00;;;;;;;;;;5051447;28;20041;-70
2022/08/28 17:08:05;;;;;;;2.95;2.10;;;;;;;;;;5052303;28;20449;-70
2022/08/28 17:11:09;;;;;;;3.25;2.50;;;;;;;;;;5052487;28;20041;-69
2022/08/28 17:14:14;;;;;;;4.70;2.28;;;;;;;;;;5051923;28;20037;-70
2022/08/28 17:17:18;;;;;;;5.55;2.63;;;;;;;;;;5052267;28;20041;-70
2022/08/28 17:23:45;;;;;;;4.53;2.58;;;;;;;;;;5050182;28;20045;-70
2022/08/28 17:26:49;;;;;;;5.50;2.75;;;;;;;;;;5050419;28;20033;-71
2022/08/28 17:29:54;;;;;;;4.22;2.45;;;;;;;;;;5050429;28;20036;-71
2022/08/28 17:32:59;;;;;;;5.45;2.47;;;;;;;;;;5050127;28;20033;-68
2022/08/28 17:36:05;;;;;;;4.82;2.40;;;;;;;;;;5051066;28;20484;-71
2022/08/28 17:39:11;;;;;;;3.50;2.30;;;;;;;;;;5050518;28;20049;-71
2022/08/28 17:42:16;;;;;;;4.00;2.60;;;;;;;;;;5050719;28;20033;-71
2022/08/28 17:45:20;;;;;;;6.55;2.70;;;;;;;;;;5051053;28;20044;-69
2022/08/28 17:48:25;;;;;;;5.82;2.85;;;;;;;;;;5051397;28;20025;-71
2022/08/28 17:51:29;;;;;;;5.85;2.78;;;;;;;;;;5051337;28;20037;-70
2022/08/28 17:54:34;;;;;;;5.30;2.75;;;;;;;;;;5051411;28;20033;-70
2022/08/28 17:57:38;;;;;;;6.60;3.22;;;;;;;;;;5051285;28;20044;-72
2022/08/28 18:00:43;;;;;;;5.43;2.95;;;;;;;;;;5051030;28;20037;-69
2022/08/28 18:03:48;;;;;;;5.40;3.17;;;;;;;;;;5050912;28;20049;-69
2022/08/28 18:06:53;;;;;;;6.20;2.72;;;;;;;;;;5050296;28;20041;-70
2022/08/28 18:09:58;;;;;;;9.57;3.17;;;;;;;;;;5050282;28;20033;-69
2022/08/28 18:13:03;;;;;;;6.05;3.22;;;;;;;;;;5049956;28;20040;-69
2022/08/28 18:16:09;;;;;;;9.13;2.88;;;;;;;;;;5051025;28;20041;-70
2022/08/28 18:19:15;;;;;;;6.40;2.20;;;;;;;;;;5050949;28;20041;-70
2022/08/28 18:22:19;;;;;;;4.25;2.30;;;;;;;;;;5050607;28;20177;-70
2022/08/28 18:25:47;;;;;;;5.68;2.95;;;;;;;;;;5050840;28;20405;-70
2022/08/28 18:28:51;;;;;;;4.80;2.50;;;;;;;;;;5050492;28;20040;-70
2022/08/28 18:31:56;;;;;;;7.50;3.05;;;;;;;;;;5050624;28;20033;-70
2022/08/28 18:35:01;;;;;;;10.35;2.92;;;;;;;;;;5038339;28;20045;-70
2022/08/28 18:38:05;;;;;;;8.05;3.50;;;;;;;;;;5050424;28;20484;-70
2022/08/28 18:41:10;;;;;;;6.15;3.50;;;;;;;;;;5050707;28;20041;-70
2022/08/28 18:44:16;;;;;;;5.75;3.35;;;;;;;;;;5050686;28;20053;-70